createdAt,value
2019-02-25T00:00:31.967Z,1.05
2019-02-25T00:03:01.747Z,0.98
2019-02-25T00:05:29.871Z,0.80
2019-02-25T00:07:59.160Z,0.85
2019-02-25T00:10:27.266Z,0.95
2019-02-25T00:12:56.259Z,1.00
2019-02-25T00:15:24.393Z,0.70
2019-02-25T00:17:52.498Z,1.00
2019-02-25T00:20:20.557Z,1.10
2019-02-25T00:22:48.637Z,0.98
2019-02-25T00:25:16.721Z,0.70
2019-02-25T00:27:44.969Z,0.90
2019-02-25T00:30:14.642Z,0.70
2019-02-25T00:32:43.348Z,0.90
2019-02-25T00:35:11.878Z,0.80
2019-02-25T00:37:39.952Z,0.75
2019-02-25T00:40:09.214Z,0.80
2019-02-25T00:42:37.586Z,1.10
2019-02-25T00:45:07.268Z,1.02
2019-02-25T00:47:35.366Z,0.90
2019-02-25T00:50:04.540Z,1.00
2019-02-25T00:52:32.658Z,0.70
2019-02-25T00:55:00.741Z,0.95
2019-02-25T00:57:28.875Z,1.00
2019-02-25T00:59:56.933Z,0.75
2019-02-25T01:02:25.055Z,0.80
2019-02-25T01:04:53.137Z,0.70
2019-02-25T01:07:21.284Z,0.88
2019-02-25T01:09:49.380Z,0.53
2019-02-25T01:12:18.617Z,0.90
2019-02-25T01:14:46.766Z,0.90
2019-02-25T01:17:15.072Z,0.88
2019-02-25T01:19:43.145Z,0.80
2019-02-25T01:22:11.232Z,0.85
2019-02-25T01:24:39.356Z,0.68
2019-02-25T01:27:07.998Z,0.80
2019-02-25T01:29:36.157Z,0.82
2019-02-25T01:32:04.229Z,0.62
2019-02-25T01:34:32.539Z,0.70
2019-02-25T01:37:00.635Z,0.60
2019-02-25T01:39:28.801Z,0.88
2019-02-25T01:41:56.937Z,0.75
2019-02-25T01:44:25.010Z,0.50
2019-02-25T01:46:53.089Z,0.70
2019-02-25T01:49:21.273Z,0.68
2019-02-25T01:51:49.326Z,0.80
2019-02-25T01:54:17.403Z,0.60
2019-02-25T01:56:45.492Z,0.60
2019-02-25T01:59:13.554Z,0.78
2019-02-25T02:01:41.611Z,0.85
2019-02-25T02:04:09.725Z,0.72
2019-02-25T02:06:37.880Z,0.60
2019-02-25T02:09:07.214Z,0.68
2019-02-25T02:11:36.474Z,0.60
2019-02-25T02:14:05.015Z,0.60
2019-02-25T02:16:33.283Z,0.60
2019-02-25T02:19:01.420Z,0.60
2019-02-25T02:21:29.599Z,0.50
2019-02-25T02:23:57.743Z,0.50
2019-02-25T02:26:25.963Z,0.50
2019-02-25T02:28:54.037Z,0.70
2019-02-25T02:31:23.701Z,0.50
2019-02-25T02:33:51.815Z,0.55
2019-02-25T02:36:19.905Z,0.68
2019-02-25T02:38:48.039Z,0.40
2019-02-25T02:41:16.491Z,0.42
2019-02-25T02:43:44.568Z,0.53
2019-02-25T02:46:17.282Z,0.50
2019-02-25T02:48:46.926Z,0.47
2019-02-25T02:51:15.106Z,0.40
2019-02-25T02:53:43.237Z,0.40
2019-02-25T02:56:11.326Z,0.30
2019-02-25T02:58:39.500Z,0.40
2019-02-25T03:01:07.605Z,0.50
2019-02-25T03:03:35.840Z,0.50
2019-02-25T03:06:04.074Z,0.50
2019-02-25T03:08:32.261Z,0.55
2019-02-25T03:11:00.402Z,0.30
2019-02-25T03:13:28.550Z,0.47
2019-02-25T03:15:56.629Z,0.50
2019-02-25T03:18:24.784Z,0.40
2019-02-25T03:20:52.887Z,0.60
2019-02-25T03:23:20.928Z,0.60
2019-02-25T03:25:50.542Z,0.50
2019-02-25T03:28:18.601Z,0.60
2019-02-25T03:30:46.761Z,0.45
2019-02-25T03:33:14.997Z,0.50
2019-02-25T03:35:43.085Z,0.50
2019-02-25T03:38:12.176Z,0.33
2019-02-25T03:40:40.331Z,0.50
2019-02-25T03:43:08.486Z,0.50
2019-02-25T03:45:36.569Z,0.60
2019-02-25T03:48:04.737Z,0.57
2019-02-25T03:50:33.809Z,0.70
2019-02-25T03:53:01.872Z,0.60
2019-02-25T03:55:30.047Z,0.55
2019-02-25T03:57:58.128Z,0.50
2019-02-25T04:00:26.707Z,0.55
2019-02-25T04:02:54.892Z,0.50
2019-02-25T04:05:23.110Z,0.53
2019-02-25T04:07:51.233Z,0.60
2019-02-25T04:10:19.430Z,0.60
2019-02-25T04:12:47.508Z,0.40
2019-02-25T04:15:18.844Z,0.50
2019-02-25T04:17:46.934Z,0.70
2019-02-25T04:20:18.041Z,0.40
2019-02-25T04:22:46.186Z,0.70
2019-02-25T04:25:14.364Z,0.68
2019-02-25T04:27:42.444Z,0.50
2019-02-25T04:30:11.948Z,0.70
2019-02-25T04:32:40.049Z,0.50
2019-02-25T04:35:10.070Z,0.60
2019-02-25T04:37:38.159Z,0.40
2019-02-25T04:40:07.915Z,0.40
2019-02-25T04:42:36.034Z,0.40
2019-02-25T04:45:06.787Z,0.40
2019-02-25T04:47:34.864Z,0.37
2019-02-25T04:50:02.912Z,0.62
2019-02-25T04:52:31.063Z,0.53
2019-02-25T04:54:59.157Z,0.50
2019-02-25T04:57:28.949Z,0.60
2019-02-25T04:59:57.030Z,0.70
2019-02-25T05:02:25.192Z,0.50
2019-02-25T05:04:54.347Z,0.70
2019-02-25T05:07:22.809Z,0.50
2019-02-25T05:09:50.938Z,0.60
2019-02-25T05:12:19.093Z,0.47
2019-02-25T05:14:47.158Z,0.53
2019-02-25T05:17:15.233Z,0.40
2019-02-25T05:19:44.540Z,0.35
2019-02-25T05:22:12.609Z,0.40
2019-02-25T05:24:40.671Z,0.30
2019-02-25T05:27:08.745Z,0.50
2019-02-25T05:29:36.801Z,0.42
2019-02-25T05:32:05.100Z,0.42
2019-02-25T05:34:33.245Z,0.40
2019-02-25T05:37:01.322Z,0.50
2019-02-25T05:39:29.398Z,0.40
2019-02-25T05:41:57.458Z,0.30
2019-02-25T05:44:25.524Z,0.50
2019-02-25T05:46:54.659Z,0.60
2019-02-25T05:49:22.825Z,0.35
2019-02-25T05:51:50.910Z,0.57
2019-02-25T05:54:18.999Z,0.47
2019-02-25T05:56:47.156Z,0.45
2019-02-25T05:59:15.587Z,0.40
2019-02-25T06:01:43.819Z,0.53
2019-02-25T06:04:11.931Z,0.42
2019-02-25T06:06:40.005Z,0.40
2019-02-25T06:09:08.084Z,0.55
2019-02-25T06:11:36.151Z,0.53
2019-02-25T06:14:04.366Z,0.78
2019-02-25T06:16:32.442Z,0.60
2019-02-25T06:19:00.504Z,0.57
2019-02-25T06:21:30.034Z,0.50
2019-02-25T06:23:58.193Z,0.42
2019-02-25T06:26:26.352Z,0.40
2019-02-25T06:28:54.519Z,0.60
2019-02-25T06:31:26.533Z,0.50
2019-02-25T06:33:54.627Z,0.53
2019-02-25T06:36:24.057Z,0.60
2019-02-25T06:38:52.243Z,0.45
2019-02-25T06:41:20.451Z,0.50
2019-02-25T06:43:48.525Z,0.50
2019-02-25T06:46:16.699Z,0.45
2019-02-25T06:48:44.821Z,0.50
2019-02-25T06:51:12.934Z,0.40
2019-02-25T06:53:41.114Z,0.50
2019-02-25T06:56:10.270Z,0.60
2019-02-25T06:58:38.409Z,0.40
2019-02-25T07:01:06.656Z,0.50
2019-02-25T07:03:34.799Z,0.55
2019-02-25T07:06:07.567Z,0.62
2019-02-25T07:08:55.657Z,0.60
2019-02-25T07:14:08.875Z,0.60
2019-02-25T07:16:44.407Z,0.50
2019-02-25T07:19:30.514Z,0.65
2019-02-25T07:22:06.423Z,0.60
2019-02-25T07:24:53.132Z,0.60
2019-02-25T07:27:28.742Z,0.60
2019-02-25T07:29:58.533Z,0.55
2019-02-25T07:32:31.122Z,0.60
2019-02-25T07:35:17.534Z,0.53
2019-02-25T07:37:47.398Z,0.47
2019-02-25T07:40:20.043Z,0.70
2019-02-25T07:43:06.176Z,0.40
2019-02-25T07:45:38.817Z,0.70
2019-02-25T07:48:25.161Z,0.47
2019-02-25T07:51:03.973Z,0.82
2019-02-25T07:53:36.420Z,0.70
2019-02-25T07:56:06.131Z,0.80
2019-02-25T07:58:35.864Z,0.80
2019-02-25T08:01:05.752Z,0.55
2019-02-25T08:03:47.791Z,0.50
2019-02-25T08:09:18.706Z,0.60
2019-02-25T08:11:48.509Z,0.57
2019-02-25T08:14:24.397Z,0.70
2019-02-25T08:16:54.219Z,0.70
2019-02-25T08:19:23.988Z,0.60
2019-02-25T08:22:12.307Z,0.60
2019-02-25T08:24:51.280Z,0.70
2019-02-25T08:27:36.375Z,0.80
2019-02-25T08:30:10.593Z,0.90
2019-02-25T08:32:40.308Z,0.72
2019-02-25T08:35:17.753Z,0.80
2019-02-25T08:37:52.032Z,0.80
2019-02-25T08:40:38.952Z,0.85
2019-02-25T08:43:18.032Z,0.98
2019-02-25T08:46:04.467Z,1.00
2019-02-25T08:48:34.230Z,0.85
2019-02-25T08:51:02.462Z,1.20
2019-02-25T08:53:30.617Z,0.95
2019-02-25T08:55:58.812Z,1.30
2019-02-25T08:58:27.454Z,1.12
2019-02-25T09:00:55.695Z,0.95
2019-02-25T09:03:23.770Z,0.95
2019-02-25T09:05:51.838Z,1.37
2019-02-25T09:08:19.986Z,1.00
2019-02-25T09:10:48.064Z,1.00
2019-02-25T09:13:16.296Z,1.02
2019-02-25T09:15:44.452Z,1.05
2019-02-25T09:18:12.525Z,1.30
2019-02-25T09:20:40.646Z,1.47
2019-02-25T09:23:08.732Z,1.35
2019-02-25T09:25:36.780Z,1.40
2019-02-25T09:28:04.998Z,1.00
2019-02-25T09:30:33.182Z,1.00
2019-02-25T09:33:01.261Z,1.30
2019-02-25T09:35:29.353Z,1.12
2019-02-25T09:37:57.425Z,1.20
2019-02-25T09:40:25.495Z,1.10
2019-02-25T09:42:53.548Z,1.27
2019-02-25T09:45:21.619Z,1.15
2019-02-25T09:47:49.712Z,1.10
2019-02-25T09:50:18.660Z,1.00
2019-02-25T09:52:46.797Z,1.12
2019-02-25T09:55:14.964Z,1.02
2019-02-25T09:57:43.182Z,1.30
2019-02-25T10:00:15.878Z,1.22
2019-02-25T10:02:44.048Z,1.02
2019-02-25T10:05:12.186Z,1.25
2019-02-25T10:07:40.400Z,1.17
2019-02-25T10:10:12.408Z,1.80
2019-02-25T10:12:40.535Z,1.30
2019-02-25T10:15:10.239Z,1.30
2019-02-25T10:17:38.951Z,1.40
2019-02-25T10:20:08.382Z,1.40
2019-02-25T10:22:37.529Z,1.50
2019-02-25T10:25:07.075Z,1.42
2019-02-25T10:27:35.243Z,1.50
2019-02-25T10:30:05.096Z,1.52
2019-02-25T10:35:00.479Z,1.62
2019-02-25T10:37:28.620Z,1.57
2019-02-25T10:39:56.702Z,2.10
2019-02-25T10:42:25.159Z,1.55
2019-02-25T10:44:53.298Z,1.80
2019-02-25T10:47:21.498Z,1.60
2019-02-25T10:49:49.894Z,2.00
2019-02-25T10:52:18.211Z,2.02
2019-02-25T10:54:47.863Z,3.02
2019-02-25T10:57:16.253Z,2.58
2019-02-25T10:59:44.407Z,2.35
2019-02-25T11:02:13.681Z,2.40
2019-02-25T11:04:42.313Z,2.00
2019-02-25T11:07:10.375Z,2.35
2019-02-25T11:09:41.978Z,1.82
2019-02-25T11:12:10.347Z,2.20
2019-02-25T11:14:40.558Z,2.65
2019-02-25T11:17:08.251Z,3.00
2019-02-25T11:19:36.346Z,3.33
2019-02-25T11:22:07.724Z,2.60
2019-02-25T11:24:35.374Z,2.10
2019-02-25T11:27:05.142Z,3.42
2019-02-25T11:29:34.291Z,2.67
2019-02-25T11:32:02.367Z,3.05
2019-02-25T11:34:31.641Z,4.17
2019-02-25T11:37:00.612Z,2.70
2019-02-25T11:39:30.237Z,5.45
2019-02-25T11:44:26.818Z,5.33
2019-02-25T11:49:22.867Z,4.00
2019-02-25T11:51:51.014Z,4.03
2019-02-25T11:54:19.233Z,3.08
2019-02-25T11:56:47.303Z,3.05
2019-02-25T11:59:15.449Z,2.77
2019-02-25T12:01:43.535Z,2.98
2019-02-25T12:04:11.689Z,2.67
2019-02-25T12:06:39.767Z,1.82
2019-02-25T12:09:08.406Z,1.32
2019-02-25T12:11:36.695Z,1.70
2019-02-25T12:14:04.969Z,1.90
2019-02-25T12:16:33.471Z,1.92
2019-02-25T12:19:01.574Z,1.85
2019-02-25T12:21:29.768Z,1.45
2019-02-25T12:23:57.878Z,1.52
2019-02-25T12:26:25.965Z,1.45
2019-02-25T12:28:54.052Z,1.60
2019-02-25T12:31:22.379Z,2.30
2019-02-25T12:33:50.471Z,2.00
2019-02-25T12:36:18.647Z,1.70
2019-02-25T12:38:46.721Z,1.87
2019-02-25T12:41:15.845Z,1.70
2019-02-25T12:43:43.990Z,1.67
2019-02-25T12:46:12.759Z,2.08
2019-02-25T12:48:41.827Z,1.62
2019-02-25T12:51:10.078Z,1.40
2019-02-25T12:53:38.216Z,1.25
2019-02-25T12:56:06.289Z,1.20
2019-02-25T12:58:34.443Z,1.40
2019-02-25T13:01:02.534Z,1.70
2019-02-25T13:03:30.622Z,1.27
2019-02-25T13:05:58.672Z,1.10
2019-02-25T13:08:27.008Z,1.70
2019-02-25T13:10:55.155Z,1.90
2019-02-25T13:13:23.277Z,2.17
2019-02-25T13:15:51.432Z,1.65
2019-02-25T13:18:19.985Z,2.30
2019-02-25T13:20:48.069Z,1.47
2019-02-25T13:23:16.615Z,2.00
2019-02-25T13:25:44.749Z,2.47
2019-02-25T13:28:12.843Z,1.60
2019-02-25T13:30:40.971Z,1.25
2019-02-25T13:33:09.116Z,1.40
2019-02-25T13:35:37.262Z,1.15
2019-02-25T13:38:05.504Z,1.10
2019-02-25T13:40:33.960Z,1.50
2019-02-25T13:43:02.094Z,1.37
2019-02-25T13:45:30.302Z,0.98
2019-02-25T13:47:58.529Z,1.65
2019-02-25T13:50:26.753Z,1.42
2019-02-25T13:52:54.928Z,1.47
2019-02-25T13:55:24.341Z,1.32
2019-02-25T13:57:52.569Z,1.12
2019-02-25T14:00:21.781Z,1.00
2019-02-25T14:02:49.992Z,0.80
2019-02-25T14:05:18.146Z,1.50
2019-02-25T14:07:46.432Z,1.60
2019-02-25T14:10:16.529Z,0.98
2019-02-25T14:12:44.779Z,0.72
2019-02-25T14:15:13.954Z,0.70
2019-02-25T14:17:42.136Z,1.22
2019-02-25T14:20:11.900Z,1.20
2019-02-25T14:22:40.040Z,0.82
2019-02-25T14:25:12.368Z,1.05
2019-02-25T14:27:40.070Z,0.80
2019-02-25T14:30:09.772Z,0.90
2019-02-25T14:32:37.974Z,0.80
2019-02-25T14:35:08.002Z,1.10
2019-02-25T14:37:37.250Z,0.72
2019-02-25T14:40:08.682Z,1.00
2019-02-25T14:42:38.771Z,0.82
2019-02-25T14:45:09.616Z,0.65
2019-02-25T14:47:39.990Z,0.72
2019-02-25T14:50:12.302Z,0.85
2019-02-25T14:52:42.131Z,0.80
2019-02-25T14:55:11.406Z,1.20
2019-02-25T14:57:40.847Z,0.62
2019-02-25T15:00:12.921Z,0.50
2019-02-25T15:02:43.745Z,0.75
2019-02-25T15:05:15.181Z,0.80
2019-02-25T15:07:44.971Z,0.90
2019-02-25T15:10:14.163Z,1.52
2019-02-25T15:12:42.234Z,1.40
2019-02-25T15:15:11.707Z,1.20
2019-02-25T15:17:42.003Z,1.15
2019-02-25T15:20:16.375Z,0.90
2019-02-25T15:22:43.306Z,0.88
2019-02-25T15:25:13.724Z,1.00
2019-02-25T15:27:42.142Z,0.80
2019-02-25T15:30:16.612Z,1.00
2019-02-25T15:32:54.852Z,1.10
2019-02-25T15:35:14.273Z,1.00
2019-02-25T15:37:44.900Z,1.07
2019-02-25T15:40:17.998Z,1.20
2019-02-25T15:42:45.013Z,1.20
2019-02-25T15:45:14.725Z,1.62
2019-02-25T15:47:44.836Z,1.40
2019-02-25T15:50:14.788Z,1.67
2019-02-25T15:52:43.158Z,1.25
2019-02-25T15:55:14.947Z,1.00
2019-02-25T15:57:42.295Z,1.30
2019-02-25T16:00:12.920Z,1.35
2019-02-25T16:02:41.208Z,1.30
2019-02-25T16:05:10.282Z,1.00
2019-02-25T16:07:40.117Z,1.30
2019-02-25T16:10:11.884Z,1.00
2019-02-25T16:12:40.195Z,1.07
2019-02-25T16:15:17.780Z,1.17
2019-02-25T16:17:49.589Z,1.20
2019-02-25T16:20:19.642Z,1.30
2019-02-25T16:22:48.918Z,1.20
2019-02-25T16:25:18.095Z,1.70
2019-02-25T16:27:49.447Z,1.45
2019-02-25T16:30:17.016Z,1.30
2019-02-25T16:32:46.687Z,1.60
2019-02-25T16:35:16.114Z,1.67
2019-02-25T16:37:44.271Z,1.72
2019-02-25T16:40:16.086Z,1.70
2019-02-25T16:42:44.418Z,1.85
2019-02-25T16:45:14.273Z,1.95
2019-02-25T16:47:42.618Z,1.60
2019-02-25T16:50:13.771Z,1.52
2019-02-25T16:52:42.903Z,1.30
2019-02-25T16:55:15.361Z,2.05
2019-02-25T16:57:45.678Z,1.70
2019-02-25T17:00:24.838Z,1.87
2019-02-25T17:02:50.921Z,2.10
2019-02-25T17:05:19.098Z,1.90
2019-02-25T17:07:49.027Z,2.12
2019-02-25T17:10:19.382Z,2.40
2019-02-25T17:12:50.091Z,2.20
2019-02-25T17:15:19.523Z,2.90
2019-02-25T17:17:48.806Z,2.35
2019-02-25T17:20:17.443Z,1.80
2019-02-25T17:22:45.894Z,1.57
2019-02-25T17:25:14.850Z,1.45
2019-02-25T17:27:43.224Z,1.35
2019-02-25T17:30:15.194Z,1.60
2019-02-25T17:32:44.139Z,1.80
2019-02-25T17:35:15.387Z,1.67
2019-02-25T17:37:44.211Z,2.00
2019-02-25T17:40:13.735Z,2.22
2019-02-25T17:42:42.109Z,2.20
2019-02-25T17:45:11.655Z,2.00
2019-02-25T17:47:41.928Z,2.10
2019-02-25T17:50:12.058Z,2.12
2019-02-25T17:52:42.115Z,2.20
2019-02-25T17:55:14.363Z,2.10
2019-02-25T17:57:42.664Z,2.00
2019-02-25T18:00:17.280Z,2.12
2019-02-25T18:02:46.210Z,2.20
2019-02-25T18:05:16.919Z,2.30
2019-02-25T18:07:46.535Z,2.22
2019-02-25T18:10:15.658Z,2.92
2019-02-25T18:12:44.275Z,2.27
2019-02-25T18:15:16.887Z,1.85
2019-02-25T18:17:46.764Z,1.65
2019-02-25T18:20:21.397Z,1.50
2019-02-25T18:22:51.011Z,1.40
2019-02-25T18:25:20.838Z,1.17
2019-02-25T18:27:50.010Z,1.10
2019-02-25T18:30:23.856Z,1.03
2019-02-25T18:32:52.642Z,1.10
2019-02-25T18:35:22.825Z,1.00
2019-02-25T18:37:51.155Z,1.70
2019-02-25T18:40:20.674Z,1.72
2019-02-25T18:42:48.924Z,1.10
2019-02-25T18:45:20.448Z,1.35
2019-02-25T18:47:48.919Z,1.17
2019-02-25T18:50:21.374Z,1.10
2019-02-25T18:52:50.133Z,0.93
2019-02-25T18:55:20.411Z,0.82
2019-02-25T18:57:51.897Z,0.80
2019-02-25T19:00:34.696Z,0.70
2019-02-25T19:03:04.827Z,0.60
2019-02-25T19:05:33.310Z,0.68
2019-02-25T19:08:02.159Z,0.70
2019-02-25T19:10:30.308Z,0.88
2019-02-25T19:13:00.882Z,0.80
2019-02-25T19:15:29.004Z,0.98
2019-02-25T19:17:57.216Z,0.90
2019-02-25T19:20:25.842Z,1.40
2019-02-25T19:22:58.046Z,1.65
2019-02-25T19:25:25.746Z,1.17
2019-02-25T19:27:56.624Z,1.02
2019-02-25T19:30:27.875Z,1.10
2019-02-25T19:32:56.605Z,1.07
2019-02-25T19:35:27.787Z,1.07
2019-02-25T19:37:54.893Z,1.05
2019-02-25T19:40:24.502Z,0.88
2019-02-25T19:42:54.197Z,0.80
2019-02-25T19:45:22.719Z,0.75
2019-02-25T19:47:50.939Z,1.00
2019-02-25T19:50:19.728Z,0.82
2019-02-25T19:52:47.808Z,1.10
2019-02-25T19:55:18.371Z,1.10
2019-02-25T19:57:46.297Z,1.02
2019-02-25T20:00:22.031Z,1.00
2019-02-25T20:02:48.184Z,0.80
2019-02-25T20:05:19.142Z,0.70
2019-02-25T20:07:47.305Z,0.80
2019-02-25T20:10:15.630Z,0.80
2019-02-25T20:12:43.839Z,0.60
2019-02-25T20:15:14.073Z,1.02
2019-02-25T20:17:44.162Z,0.95
2019-02-25T20:20:14.986Z,0.80
2019-02-25T20:22:43.696Z,0.65
2019-02-25T20:25:16.440Z,0.70
2019-02-25T20:30:14.504Z,0.60
2019-02-25T20:32:43.828Z,0.68
2019-02-25T20:35:17.761Z,0.78
2019-02-25T20:37:46.447Z,0.65
2019-02-25T20:40:19.047Z,0.70
2019-02-25T20:42:49.073Z,0.67
2019-02-25T20:45:19.092Z,0.80
2019-02-25T20:47:48.142Z,0.70
2019-02-25T20:50:19.728Z,0.65
2019-02-25T20:52:47.912Z,0.70
2019-02-25T20:55:16.067Z,1.02
2019-02-25T20:57:45.052Z,0.90
2019-02-25T21:00:21.566Z,0.70
2019-02-25T21:02:49.783Z,0.53
2019-02-25T21:05:20.160Z,0.60
2019-02-25T21:07:48.223Z,0.90
2019-02-25T21:10:18.160Z,0.60
2019-02-25T21:12:46.233Z,0.80
2019-02-25T21:15:19.289Z,0.70
2019-02-25T21:17:47.651Z,0.72
2019-02-25T21:20:16.626Z,0.88
2019-02-25T21:22:44.777Z,0.65
2019-02-25T21:25:14.719Z,0.80
2019-02-25T21:27:43.217Z,0.90
2019-02-25T21:30:12.960Z,0.85
2019-02-25T21:32:43.250Z,0.83
2019-02-25T21:35:18.138Z,1.07
2019-02-25T21:37:48.278Z,1.02
2019-02-25T21:40:16.906Z,0.90
2019-02-25T21:42:46.886Z,0.70
2019-02-25T21:45:18.003Z,0.90
2019-02-25T21:47:45.099Z,1.02
2019-02-25T21:50:14.961Z,1.42
2019-02-25T21:52:43.556Z,1.35
2019-02-25T21:55:13.002Z,0.90
2019-02-25T21:57:41.308Z,1.00
2019-02-25T22:00:10.918Z,0.90
2019-02-25T22:02:41.340Z,0.90
2019-02-25T22:05:12.267Z,2.02
2019-02-25T22:07:40.520Z,1.80
2019-02-25T22:10:09.950Z,2.50
2019-02-25T22:12:39.973Z,2.30
2019-02-25T22:15:10.812Z,2.70
2019-02-25T22:17:40.725Z,2.75
2019-02-25T22:20:12.075Z,3.30
2019-02-25T22:22:39.843Z,3.55
2019-02-25T22:25:11.133Z,2.15
2019-02-25T22:27:41.176Z,2.05
2019-02-25T22:32:40.671Z,1.90
2019-02-25T22:35:10.411Z,1.52
2019-02-25T22:37:39.261Z,1.10
2019-02-25T22:40:10.227Z,1.22
2019-02-25T22:42:38.720Z,1.20
2019-02-25T22:45:19.743Z,1.20
2019-02-25T22:47:47.885Z,1.50
2019-02-25T22:50:16.208Z,2.20
2019-02-25T22:52:44.330Z,1.57
2019-02-25T22:55:15.303Z,1.42
2019-02-25T22:57:43.903Z,1.60
2019-02-25T23:00:14.771Z,1.20
2019-02-25T23:02:45.269Z,1.30
2019-02-25T23:05:15.219Z,1.07
2019-02-25T23:07:45.384Z,1.50
2019-02-25T23:10:15.260Z,1.55
2019-02-25T23:12:43.125Z,1.70
2019-02-25T23:15:11.264Z,1.65
2019-02-25T23:17:40.681Z,1.65
2019-02-25T23:20:10.613Z,1.60
2019-02-25T23:22:39.615Z,1.50
2019-02-25T23:25:08.558Z,1.50
2019-02-25T23:27:38.866Z,1.20
2019-02-25T23:30:09.098Z,1.20
2019-02-25T23:32:39.330Z,1.90
2019-02-25T23:35:09.410Z,1.60
2019-02-25T23:37:37.276Z,1.60
2019-02-25T23:40:07.783Z,1.47
2019-02-25T23:42:39.619Z,1.80
2019-02-25T23:47:36.020Z,1.12
2019-02-25T23:50:10.502Z,1.10
2019-02-25T23:52:38.249Z,1.30
2019-02-25T23:55:12.163Z,0.98
2019-02-25T23:57:39.784Z,1.07
